Time;durP1;ratioP1;P1;durP2;ratioP2;P2;SDS_P1;SDS_P2;PMS_P1;PMS_P2;Temp;Humidity;BMP_temperature;BMP_pressure;BME280_temperature;BME280_humidity;BME280_pressure;Samples;Min_cycle;Max_cycle;Signal;HPM_P1;HPM_P2
2023/08/10 00:00:34;;;;;;;5.50;0.90;;;13.70;99.90;;;;;;4885792;29;20054;-96
2023/08/10 00:03:18;;;;;;;3.50;0.93;;;13.70;99.90;;;;;;4839549;29;20082;-96
2023/08/10 00:06:11;;;;;;;3.17;0.95;;;13.70;99.90;;;;;;4838126;29;20062;-96
2023/08/10 00:13:13;;;;;;;2.85;1.02;;;13.60;99.90;;;;;;4867421;29;20066;-96
2023/08/10 00:16:38;;;;;;;3.90;0.90;;;13.40;99.90;;;;;;4879645;29;20068;-96
2023/08/10 00:19:18;;;;;;;2.80;0.80;;;13.60;99.90;;;;;;4852931;29;20061;-96
2023/08/10 00:21:55;;;;;;;;;;;;;;;;;;;;;
2023/08/10 00:24:39;;;;;;;2.63;0.85;;;13.60;99.90;;;;;;4854953;29;20114;-96
2023/08/10 00:27:26;;;;;;;;;;;;;;;;;;;;;
2023/08/10 00:30:34;;;;;;;;;;;;;;;;;;;;;
2023/08/10 00:33:32;;;;;;;3.20;1.00;;;13.60;99.90;;;;;;4854712;29;20049;-96
2023/08/10 00:36:27;;;;;;;4.53;1.15;;;13.50;99.90;;;;;;4869613;29;20065;-96
2023/08/10 00:39:33;;;;;;;2.10;1.10;;;13.50;99.90;;;;;;4848285;29;20037;-96
2023/08/10 00:42:13;;;;;;;1.95;0.90;;;13.50;99.90;;;;;;4853030;29;20055;-96
2023/08/10 00:45:00;;;;;;;2.78;1.02;;;13.50;99.90;;;;;;4833649;29;20493;-96
2023/08/10 00:50:46;;;;;;;1.58;0.85;;;13.50;99.90;;;;;;4866159;29;20046;-96
2023/08/10 00:53:33;;;;;;;3.30;1.00;;;13.50;99.90;;;;;;4852414;29;20122;-96
2023/08/10 00:56:11;;;;;;;2.00;0.82;;;13.40;99.90;;;;;;4853003;29;20101;-96
2023/08/10 00:58:40;;;;;;;6.38;1.23;;;13.60;99.90;;;;;;4835300;29;20049;-96
2023/08/10 01:01:30;;;;;;;3.95;1.00;;;12.90;99.90;;;;;;4853131;29;20052;-96
2023/08/10 01:08:14;;;;;;;4.25;1.67;;;13.30;99.90;;;;;;4875554;29;20081;-96
2023/08/10 01:11:25;;;;;;;3.10;1.08;;;13.40;99.90;;;;;;4781855;29;20055;-96
2023/08/10 01:14:06;;;;;;;4.30;1.20;;;13.60;99.90;;;;;;4800992;29;20408;-96
2023/08/10 01:17:23;;;;;;;3.75;1.13;;;13.50;99.90;;;;;;4876760;29;20132;-96
2023/08/10 01:20:13;;;;;;;5.85;0.82;;;13.00;99.90;;;;;;4839368;29;20073;-96
2023/08/10 01:23:14;;;;;;;3.30;1.05;;;13.50;99.90;;;;;;4838435;29;20056;-96
2023/08/10 01:25:50;;;;;;;1.67;0.90;;;13.40;99.90;;;;;;4839071;29;20141;-96
2023/08/10 01:28:32;;;;;;;4.28;1.17;;;13.40;99.90;;;;;;4839484;29;20132;-96
2023/08/10 01:31:15;;;;;;;4.78;1.00;;;13.10;99.90;;;;;;4854850;29;20489;-96
2023/08/10 01:33:47;;;;;;;3.40;1.05;;;13.40;99.90;;;;;;4832034;29;20053;-96
2023/08/10 01:36:22;;;;;;;2.15;0.90;;;13.30;99.90;;;;;;4862605;29;20535;-96
2023/08/10 01:39:36;;;;;;;1.85;0.85;;;13.40;99.90;;;;;;4857537;29;20664;-96
2023/08/10 01:42:31;;;;;;;2.85;0.88;;;13.40;99.90;;;;;;4851060;29;20040;-96
2023/08/10 01:45:08;;;;;;;1.42;0.80;;;13.40;99.90;;;;;;4840382;29;20053;-95
2023/08/10 01:51:47;;;;;;;3.67;1.00;;;13.40;99.90;;;;;;4855353;29;20045;-96
2023/08/10 01:54:38;;;;;;;5.95;0.90;;;13.40;99.90;;;;;;4840109;29;20045;-96
2023/08/10 01:57:50;;;;;;;1.98;0.85;;;13.40;99.90;;;;;;4837861;29;20041;-96
2023/08/10 02:00:30;;;;;;;2.97;0.98;;;13.50;99.90;;;;;;4826846;29;20045;-96
2023/08/10 02:03:17;;;;;;;3.88;1.00;;;13.00;99.90;;;;;;4848367;29;20057;-96
2023/08/10 02:06:06;;;;;;;4.68;1.50;;;13.50;99.90;;;;;;4874798;29;20061;-96
2023/08/10 02:12:44;;;;;;;;;;;13.40;99.90;;;;;;4840189;29;20507;-96
2023/08/10 02:15:27;;;;;;;5.13;1.02;;;13.50;99.90;;;;;;4805108;29;19988;-96
2023/08/10 02:18:17;;;;;;;;;;;;;;;;;;;;;
2023/08/10 02:21:08;;;;;;;;;;;;;;;;;;;;;
2023/08/10 02:23:59;;;;;;;5.13;1.33;;;13.60;99.90;;;;;;4865693;29;20045;-95
2023/08/10 02:27:18;;;;;;;3.25;0.80;;;13.80;99.90;;;;;;4835538;29;20060;-96
2023/08/10 02:29:41;;;;;;;2.13;0.70;;;13.70;99.90;;;;;;4842418;29;20135;-96
2023/08/10 02:32:31;;;;;;;3.55;0.80;;;13.60;99.90;;;;;;4834711;29;20105;-95
2023/08/10 02:38:37;;;;;;;2.40;0.90;;;13.60;99.90;;;;;;4815986;29;20669;-96
2023/08/10 02:41:41;;;;;;;2.60;0.82;;;13.60;99.90;;;;;;4836738;29;20101;-96
2023/08/10 02:44:16;;;;;;;3.97;0.90;;;13.60;99.90;;;;;;4851652;29;20052;-96
2023/08/10 02:47:20;;;;;;;;;;;;;;;;;;;;;
2023/08/10 02:50:06;;;;;;;3.40;0.95;;;13.40;99.90;;;;;;4857183;29;20049;-96
2023/08/10 02:52:47;;;;;;;3.40;0.82;;;13.50;99.90;;;;;;4831008;29;20128;-96
2023/08/10 02:55:22;;;;;;;;;;;13.70;99.90;;;;;;4831927;29;20045;-96
2023/08/10 03:04:23;;;;;;;3.70;0.85;;;13.60;99.90;;;;;;4808747;29;20129;-95
2023/08/10 03:06:55;;;;;;;1.88;0.63;;;13.70;99.90;;;;;;4806099;29;20054;-96
2023/08/10 03:10:02;;;;;;;3.17;1.00;;;13.80;99.90;;;;;;4821071;29;20416;-95
2023/08/10 03:12:30;;;;;;;3.47;1.00;;;13.70;99.90;;;;;;4817276;29;20054;-96
2023/08/10 03:15:28;;;;;;;5.55;1.00;;;13.70;99.90;;;;;;4802376;29;20045;-96
2023/08/10 03:18:08;;;;;;;2.90;0.90;;;14.10;99.90;;;;;;4797111;29;20058;-96
2023/08/10 03:21:04;;;;;;;2.08;0.80;;;13.70;99.90;;;;;;4812660;29;20133;-96
2023/08/10 03:23:38;;;;;;;2.97;0.85;;;13.60;99.90;;;;;;4815157;29;20781;-94
2023/08/10 03:26:31;;;;;;;2.25;0.80;;;13.50;99.90;;;;;;4823364;29;20077;-95
2023/08/10 03:29:04;;;;;;;3.33;1.10;;;13.50;99.90;;;;;;4799730;29;20049;-95
2023/08/10 03:31:49;;;;;;;4.30;1.00;;;13.70;99.90;;;;;;4805944;29;20038;-96
2023/08/10 03:34:20;;;;;;;3.85;0.88;;;13.70;99.90;;;;;;4814849;29;20061;-96
2023/08/10 03:36:46;;;;;;;2.58;0.90;;;13.70;99.90;;;;;;4820143;29;20044;-96
2023/08/10 03:39:41;;;;;;;3.20;0.90;;;13.70;99.90;;;;;;4813074;29;20489;-96
2023/08/10 03:42:15;;;;;;;2.00;0.90;;;13.70;99.90;;;;;;4830592;29;20096;-96
2023/08/10 03:45:20;;;;;;;1.93;0.90;;;13.70;99.90;;;;;;4830508;29;20105;-96
2023/08/10 03:47:52;;;;;;;3.17;0.88;;;13.80;99.90;;;;;;4845061;29;20561;-95
2023/08/10 03:50:25;;;;;;;2.80;0.95;;;13.80;99.90;;;;;;4830190;29;20503;-96
2023/08/10 03:52:54;;;;;;;2.67;0.90;;;13.60;99.90;;;;;;4818533;29;20048;-96
2023/08/10 03:55:44;;;;;;;3.15;1.08;;;13.80;99.90;;;;;;4843356;29;20125;-96
2023/08/10 03:58:49;;;;;;;7.15;1.50;;;13.90;99.90;;;;;;4829843;29;20182;-96
2023/08/10 04:01:18;;;;;;;2.03;0.88;;;14.00;99.90;;;;;;4806688;29;20057;-96
2023/08/10 04:04:16;;;;;;;2.03;1.10;;;13.90;99.90;;;;;;4830574;29;20136;-96
2023/08/10 04:07:07;;;;;;;5.65;1.10;;;13.90;99.90;;;;;;4821785;29;20383;-96
2023/08/10 04:09:47;;;;;;;3.13;1.00;;;13.90;99.90;;;;;;4823710;29;20046;-96
2023/08/10 04:12:24;;;;;;;2.33;0.80;;;13.90;99.90;;;;;;4805437;29;20050;-96
2023/08/10 04:14:59;;;;;;;3.50;1.30;;;13.80;99.90;;;;;;4830478;29;20060;-96
2023/08/10 04:17:29;;;;;;;3.80;1.33;;;13.70;99.90;;;;;;4831071;29;20054;-96
2023/08/10 04:20:10;;;;;;;2.45;1.10;;;13.70;99.90;;;;;;4812135;29;20405;-96
2023/08/10 04:22:42;;;;;;;2.38;0.80;;;13.90;99.90;;;;;;4819361;29;20593;-95
2023/08/10 04:25:24;;;;;;;2.90;1.10;;;13.90;99.90;;;;;;4833933;29;20119;-96
2023/08/10 04:31:05;;;;;;;3.70;0.98;;;13.90;99.90;;;;;;4834588;29;20045;-96
2023/08/10 04:37:18;;;;;;;3.33;1.10;;;13.80;99.90;;;;;;4836856;29;20068;-96
2023/08/10 04:40:09;;;;;;;1.73;0.93;;;13.90;99.90;;;;;;4814795;29;20053;-96
2023/08/10 04:42:55;;;;;;;2.67;1.20;;;13.90;99.90;;;;;;4812784;29;20052;-96
2023/08/10 04:45:53;;;;;;;2.92;1.00;;;13.80;99.90;;;;;;4834793;29;20053;-96
2023/08/10 04:48:33;;;;;;;3.78;0.95;;;14.00;99.90;;;;;;4833545;29;20132;-96
2023/08/10 04:51:15;;;;;;;5.03;1.58;;;14.00;99.90;;;;;;4817775;29;20054;-96
2023/08/10 04:53:52;;;;;;;3.83;1.23;;;14.00;99.90;;;;;;4816675;29;20104;-96
2023/08/10 04:56:32;;;;;;;4.22;1.20;;;13.70;99.90;;;;;;4827665;29;20033;-96
2023/08/10 04:59:25;;;;;;;3.95;1.10;;;13.90;99.90;;;;;;4849076;29;20076;-96
2023/08/10 05:02:28;;;;;;;3.17;1.02;;;14.10;99.90;;;;;;4834906;29;20049;-95
2023/08/10 05:05:17;;;;;;;5.22;1.40;;;13.80;99.90;;;;;;4837767;29;20038;-96
2023/08/10 05:08:24;;;;;;;2.67;1.08;;;14.40;99.90;;;;;;4821104;29;20121;-96
2023/08/10 05:11:07;;;;;;;3.60;0.80;;;14.20;99.90;;;;;;4813817;29;20054;-96
2023/08/10 05:14:08;;;;;;;1.88;1.02;;;14.30;99.90;;;;;;4826043;29;20049;-95
2023/08/10 05:17:15;;;;;;;5.53;1.50;;;14.70;99.90;;;;;;4842697;29;20068;-95
2023/08/10 05:19:53;;;;;;;3.42;0.90;;;14.30;99.90;;;;;;4844309;29;20045;-96
2023/08/10 05:22:45;;;;;;;3.25;0.85;;;14.30;99.90;;;;;;4833919;29;20140;-96
2023/08/10 05:25:36;;;;;;;4.18;1.23;;;14.00;99.90;;;;;;4860101;29;20081;-96
2023/08/10 05:31:18;;;;;;;3.17;0.95;;;14.20;99.90;;;;;;4803839;29;20086;-96
2023/08/10 05:34:02;;;;;;;3.55;1.10;;;14.60;99.90;;;;;;4856941;29;20050;-96
2023/08/10 05:37:38;;;;;;;;;;;;;;;;;;;;;
2023/08/10 05:39:41;;;;;;;3.83;1.23;;;14.70;99.90;;;;;;4842465;29;20048;-96
2023/08/10 05:45:19;;;;;;;2.58;1.10;;;14.90;99.90;;;;;;4852546;29;20045;-96
2023/08/10 05:48:02;;;;;;;1.77;0.95;;;15.00;99.90;;;;;;4839155;29;20120;-95
2023/08/10 05:50:51;;;;;;;3.13;1.20;;;15.10;99.90;;;;;;4847400;29;20076;-96
2023/08/10 05:53:34;;;;;;;2.08;0.90;;;15.30;99.90;;;;;;4848377;29;20080;-96
2023/08/10 05:56:27;;;;;;;2.40;1.00;;;15.40;99.90;;;;;;4843779;29;20088;-96
2023/08/10 05:59:09;;;;;;;3.25;1.23;;;15.50;99.90;;;;;;4834823;29;20074;-96
2023/08/10 06:01:58;;;;;;;3.42;1.05;;;15.60;99.90;;;;;;4829491;29;20052;-96
2023/08/10 06:04:36;;;;;;;2.40;1.02;;;15.50;99.90;;;;;;4835159;29;20569;-96
2023/08/10 06:07:24;;;;;;;2.92;1.17;;;14.90;99.90;;;;;;4832187;29;20057;-96
2023/08/10 06:10:08;;;;;;;2.25;0.90;;;15.70;99.90;;;;;;4818520;29;20418;-96
2023/08/10 06:13:12;;;;;;;3.35;1.13;;;15.70;99.90;;;;;;4853130;29;20045;-95
2023/08/10 06:19:35;;;;;;;3.28;1.30;;;16.10;99.90;;;;;;4866058;29;20049;-96
2023/08/10 06:22:46;;;;;;;2.05;1.25;;;16.20;99.90;;;;;;4819691;29;20061;-96
2023/08/10 06:25:33;;;;;;;4.95;1.20;;;16.40;99.90;;;;;;4841232;29;20076;-95
2023/08/10 06:27:59;;;;;;;2.97;1.45;;;17.80;99.90;;;;;;4849901;29;20052;-96
2023/08/10 06:30:59;;;;;;;3.72;1.33;;;19.20;99.90;;;;;;4846591;29;20129;-95
2023/08/10 06:34:16;;;;;;;4.38;1.40;;;20.50;99.90;;;;;;4833793;29;20667;-96
2023/08/10 06:36:54;;;;;;;4.53;1.30;;;21.40;99.90;;;;;;4826714;29;20079;-96
2023/08/10 06:39:48;;;;;;;3.95;1.27;;;22.20;99.90;;;;;;4832027;29;20061;-96
2023/08/10 06:42:28;;;;;;;2.25;1.00;;;23.20;99.90;;;;;;4836227;29;20052;-96
2023/08/10 06:45:14;;;;;;;5.07;1.02;;;24.30;99.90;;;;;;4837023;29;20052;-96
2023/08/10 06:48:52;;;;;;;3.15;1.00;;;24.80;99.90;;;;;;4840404;29;20048;-96
2023/08/10 06:55:47;;;;;;;2.97;0.95;;;26.40;99.90;;;;;;4851568;29;20040;-96
2023/08/10 06:59:03;;;;;;;;;;;;;;;;;;;;;
2023/08/10 07:02:06;;;;;;;3.92;1.02;;;27.50;99.90;;;;;;4807436;29;20042;-96
2023/08/10 07:08:17;;;;;;;2.40;0.55;;;27.70;93.80;;;;;;4847612;29;20474;-96
2023/08/10 07:12:10;;;;;;;4.55;0.93;;;28.20;98.80;;;;;;4804110;29;20046;-96
2023/08/10 07:14:55;;;;;;;2.35;0.70;;;28.60;91.00;;;;;;4828452;29;20053;-96
2023/08/10 07:18:17;;;;;;;6.13;0.90;;;28.70;85.60;;;;;;4815491;29;20066;-96
2023/08/10 07:24:56;;;;;;;3.00;0.70;;;29.00;83.20;;;;;;4850400;29;20034;-96
2023/08/10 07:27:45;;;;;;;2.75;0.57;;;29.30;80.00;;;;;;4834973;29;20053;-96
2023/08/10 07:30:57;;;;;;;2.03;0.55;;;29.60;83.30;;;;;;4839919;29;20060;-96
2023/08/10 07:33:53;;;;;;;2.65;0.88;;;29.70;80.30;;;;;;4859345;29;20113;-96
2023/08/10 07:36:33;;;;;;;4.30;1.00;;;29.60;76.10;;;;;;4832825;29;20037;-96
2023/08/10 07:39:35;;;;;;;4.53;0.80;;;29.70;78.50;;;;;;4825205;29;20055;-96
2023/08/10 07:42:14;;;;;;;4.10;0.85;;;29.60;74.30;;;;;;4850304;29;20046;-96
2023/08/10 07:45:02;;;;;;;3.15;0.73;;;29.50;78.00;;;;;;4845562;29;20623;-96
2023/08/10 07:48:20;;;;;;;4.50;0.70;;;28.90;76.60;;;;;;4844940;29;20049;-96
2023/08/10 07:50:57;;;;;;;3.40;0.70;;;28.40;75.20;;;;;;4854659;29;20086;-96
2023/08/10 07:57:02;;;;;;;2.38;0.60;;;27.10;76.30;;;;;;4883400;29;20068;-96
2023/08/10 08:00:42;;;;;;;1.98;0.70;;;25.90;78.60;;;;;;4851192;29;20038;-96
2023/08/10 08:03:11;;;;;;;2.88;0.70;;;;;;;;;;4764482;30;20043;-96
2023/08/10 08:08:58;;;;;;;;;;;;;;;;;;;;;
2023/08/10 08:12:07;;;;;;;3.30;0.77;;;23.60;86.60;;;;;;4853804;29;20056;-96
2023/08/10 08:14:43;;;;;;;3.53;0.68;;;24.20;85.70;;;;;;4871928;29;20413;-96
2023/08/10 08:17:36;;;;;;;2.80;0.82;;;24.20;85.30;;;;;;4851136;29;20059;-96
2023/08/10 08:20:06;;;;;;;2.53;0.80;;;23.70;86.60;;;;;;4861236;29;20080;-96
2023/08/10 08:23:28;;;;;;;3.08;1.10;;;23.00;89.80;;;;;;4851044;29;20065;-96
2023/08/10 08:26:24;;;;;;;2.45;0.77;;;22.70;91.30;;;;;;4830477;29;20144;-96
2023/08/10 08:29:00;;;;;;;2.42;0.50;;;22.40;92.80;;;;;;4840931;29;20061;-96
2023/08/10 08:31:35;;;;;;;2.92;0.60;;;22.20;94.00;;;;;;4859137;29;20045;-96
2023/08/10 08:34:10;;;;;;;3.70;0.80;;;21.90;94.40;;;;;;4844384;29;20080;-96
2023/08/10 08:36:53;;;;;;;3.15;0.50;;;21.50;95.30;;;;;;4868099;29;20097;-96
2023/08/10 08:39:56;;;;;;;3.03;0.75;;;21.20;96.90;;;;;;4856065;29;20053;-96
2023/08/10 08:42:28;;;;;;;1.70;0.65;;;20.80;98.50;;;;;;4838284;29;20056;-96
2023/08/10 08:45:02;;;;;;;2.50;0.65;;;20.50;99.90;;;;;;4842652;29;20057;-96
2023/08/10 08:47:52;;;;;;;2.70;0.60;;;20.30;99.90;;;;;;4841801;29;20304;-95
2023/08/10 08:50:34;;;;;;;2.00;0.40;;;20.10;99.90;;;;;;4840963;29;20049;-96
2023/08/10 08:53:10;;;;;;;2.90;0.57;;;20.50;99.90;;;;;;4827135;29;20074;-96
2023/08/10 08:55:59;;;;;;;2.65;0.80;;;19.80;99.90;;;;;;4838295;29;20033;-96
2023/08/10 08:58:30;;;;;;;1.65;0.60;;;19.70;99.90;;;;;;4865150;29;20059;-96
2023/08/10 09:01:03;;;;;;;3.45;0.47;;;19.70;99.90;;;;;;4853897;29;20409;-96
2023/08/10 09:03:56;;;;;;;2.25;0.70;;;19.70;99.90;;;;;;4867597;29;20065;-96
2023/08/10 09:06:47;;;;;;;1.50;0.50;;;19.60;99.90;;;;;;4857340;29;20057;-96
2023/08/10 09:09:22;;;;;;;1.73;0.50;;;19.80;99.90;;;;;;4846366;29;20045;-96
2023/08/10 09:11:48;;;;;;;2.97;0.80;;;19.70;99.90;;;;;;4842424;29;20046;-95
2023/08/10 09:14:36;;;;;;;2.35;0.70;;;19.70;99.90;;;;;;4844473;29;20128;-96
2023/08/10 09:17:04;;;;;;;;;;;19.70;99.90;;;;;;4834469;29;20478;-96
2023/08/10 09:19:43;;;;;;;1.88;0.60;;;19.60;99.90;;;;;;4843335;29;19936;-96
2023/08/10 09:22:27;;;;;;;2.20;0.45;;;19.70;99.90;;;;;;4851073;29;20056;-96
2023/08/10 09:24:56;;;;;;;2.33;0.50;;;19.70;99.90;;;;;;4851264;29;20131;-96
2023/08/10 09:27:49;;;;;;;1.65;0.50;;;19.70;99.90;;;;;;4854657;29;20049;-95
2023/08/10 09:30:31;;;;;;;2.92;0.60;;;19.80;99.90;;;;;;4842919;29;20053;-96
2023/08/10 09:33:33;;;;;;;2.83;0.40;;;19.80;99.90;;;;;;4855405;29;20048;-96
2023/08/10 09:36:14;;;;;;;1.30;0.38;;;19.80;99.90;;;;;;4821646;29;20050;-96
2023/08/10 09:39:00;;;;;;;1.08;0.40;;;19.90;99.90;;;;;;4852484;29;20053;-96
2023/08/10 09:41:53;;;;;;;2.05;0.50;;;19.90;99.90;;;;;;4843888;29;20045;-96
2023/08/10 09:44:21;;;;;;;3.70;0.68;;;20.00;99.90;;;;;;4847225;29;20096;-96
2023/08/10 09:47:07;;;;;;;1.45;0.30;;;20.00;99.90;;;;;;4849482;29;20104;-96
2023/08/10 09:50:06;;;;;;;;;;;;;;;;;;;;;
2023/08/10 09:56:21;;;;;;;1.42;0.40;;;20.10;99.90;;;;;;4861979;29;20497;-96
2023/08/10 10:01:48;;;;;;;1.20;0.70;;;20.10;99.90;;;;;;4849840;29;20060;-96
2023/08/10 10:04:22;;;;;;;3.83;0.57;;;20.10;99.90;;;;;;4849238;29;20067;-96
2023/08/10 10:07:19;;;;;;;2.05;0.50;;;20.10;99.90;;;;;;4831613;29;20132;-96
2023/08/10 10:09:55;;;;;;;5.20;0.95;;;20.40;99.90;;;;;;4854235;29;20049;-96
2023/08/10 10:12:40;;;;;;;1.75;0.57;;;20.20;99.90;;;;;;4845593;29;20045;-96
2023/08/10 10:15:21;;;;;;;2.38;0.50;;;20.30;99.90;;;;;;4865751;29;20069;-96
2023/08/10 10:18:28;;;;;;;1.17;0.50;;;20.20;99.90;;;;;;4850264;29;20042;-96
2023/08/10 10:21:25;;;;;;;1.45;0.50;;;20.30;99.90;;;;;;4866441;29;20049;-96
2023/08/10 10:24:30;;;;;;;3.15;0.63;;;20.30;99.90;;;;;;4836922;29;20105;-96
2023/08/10 10:27:38;;;;;;;2.00;0.52;;;20.30;99.90;;;;;;4857133;29;20050;-96
2023/08/10 10:30:24;;;;;;;1.83;0.57;;;20.30;99.90;;;;;;4848516;29;20056;-96
2023/08/10 10:33:09;;;;;;;2.50;0.80;;;20.20;99.90;;;;;;4846770;29;20072;-96
2023/08/10 10:36:02;;;;;;;2.58;0.60;;;20.00;99.90;;;;;;4851369;29;20045;-96
2023/08/10 10:38:30;;;;;;;1.67;0.50;;;20.40;99.90;;;;;;4847377;29;20085;-96
2023/08/10 10:41:35;;;;;;;1.33;0.50;;;20.10;99.90;;;;;;4852294;29;20102;-96
2023/08/10 10:48:23;;;;;;;2.15;0.47;;;20.30;99.90;;;;;;4825062;29;20050;-96
2023/08/10 10:51:53;;;;;;;2.70;0.40;;;20.40;99.90;;;;;;4847950;29;20109;-96
2023/08/10 10:55:03;;;;;;;2.25;0.50;;;20.30;99.90;;;;;;4841241;29;20084;-96
2023/08/10 10:57:52;;;;;;;5.63;0.50;;;20.40;99.90;;;;;;4825338;29;20064;-96
2023/08/10 11:00:33;;;;;;;1.98;0.50;;;20.50;99.90;;;;;;4860047;29;20054;-96
2023/08/10 11:03:10;;;;;;;1.35;0.45;;;20.50;99.90;;;;;;4836714;29;20049;-96
2023/08/10 11:05:50;;;;;;;2.50;0.60;;;20.50;99.90;;;;;;4844042;29;20045;-96
2023/08/10 11:08:53;;;;;;;1.65;0.50;;;20.50;99.90;;;;;;4851962;29;20053;-96
2023/08/10 11:14:42;;;;;;;1.00;0.40;;;20.50;99.90;;;;;;4866850;29;20091;-96
2023/08/10 11:20:51;;;;;;;2.90;0.57;;;20.70;99.90;;;;;;4848219;29;20054;-96
2023/08/10 11:23:39;;;;;;;3.03;0.60;;;20.90;99.90;;;;;;4838611;29;20073;-96
2023/08/10 11:26:08;;;;;;;1.20;0.52;;;21.00;99.90;;;;;;4843068;29;20084;-96
2023/08/10 11:28:53;;;;;;;2.38;0.60;;;21.20;99.90;;;;;;4855921;29;20113;-96
2023/08/10 11:31:56;;;;;;;3.08;0.50;;;21.20;99.90;;;;;;4871268;29;20045;-96
2023/08/10 11:34:40;;;;;;;1.70;0.38;;;21.20;99.90;;;;;;4841576;29;20049;-96
2023/08/10 11:37:16;;;;;;;1.38;0.30;;;21.20;99.90;;;;;;4836739;29;20049;-96
2023/08/10 11:40:06;;;;;;;3.60;0.40;;;21.20;99.90;;;;;;4821292;29;20496;-96
2023/08/10 11:43:04;;;;;;;1.33;0.40;;;21.20;99.90;;;;;;4855122;29;20621;-96
2023/08/10 11:45:55;;;;;;;1.10;0.50;;;21.20;99.90;;;;;;4844253;29;20050;-96
2023/08/10 11:48:47;;;;;;;1.10;0.40;;;21.20;99.90;;;;;;4834146;29;20059;-96
2023/08/10 11:52:15;;;;;;;;;;;;;;;;;;;;;
2023/08/10 11:55:53;;;;;;;2.33;0.60;;;21.10;99.90;;;;;;4850775;29;20053;-96
2023/08/10 11:58:37;;;;;;;2.72;0.40;;;21.10;99.90;;;;;;4823901;29;20090;-96
2023/08/10 12:02:13;;;;;;;2.03;0.70;;;20.90;99.90;;;;;;4838622;29;20053;-96
2023/08/10 12:05:22;;;;;;;4.35;0.60;;;20.90;99.90;;;;;;4826854;29;20049;-96
2023/08/10 12:08:24;;;;;;;1.40;0.50;;;20.90;99.90;;;;;;4854282;29;20112;-96
2023/08/10 12:11:14;;;;;;;3.78;1.58;;;20.90;99.90;;;;;;4834049;29;20057;-96
2023/08/10 12:14:33;;;;;;;1.98;0.65;;;20.90;99.90;;;;;;4767892;30;20666;-96
2023/08/10 12:17:16;;;;;;;1.98;0.50;;;20.80;99.90;;;;;;4780058;30;20079;-96
2023/08/10 12:19:47;;;;;;;4.32;0.60;;;20.80;99.90;;;;;;4870786;29;20041;-96
2023/08/10 12:22:52;;;;;;;;;;;;;;;;;;;;;
2023/08/10 12:25:41;;;;;;;1.88;0.70;;;20.90;99.90;;;;;;4862311;29;20132;-96
2023/08/10 12:28:30;;;;;;;2.67;0.77;;;20.80;99.90;;;;;;4853935;29;20045;-96
2023/08/10 12:31:12;;;;;;;1.52;0.50;;;21.00;99.90;;;;;;4843878;29;20132;-96
2023/08/10 12:34:10;;;;;;;2.60;0.70;;;20.80;99.90;;;;;;4852513;29;20053;-96
2023/08/10 12:37:29;;;;;;;;;;;;;;;;;;;;;
2023/08/10 12:40:15;;;;;;;2.38;0.70;;;20.60;99.90;;;;;;4850143;29;20046;-96
2023/08/10 12:42:49;;;;;;;1.15;0.68;;;20.60;99.90;;;;;;4845897;29;20053;-96
2023/08/10 12:45:32;;;;;;;1.75;0.63;;;20.40;99.90;;;;;;4862770;29;20052;-96
2023/08/10 12:48:30;;;;;;;2.20;0.63;;;20.50;99.90;;;;;;4841849;29;20053;-96
2023/08/10 12:51:45;;;;;;;1.52;0.80;;;20.40;99.90;;;;;;4860720;29;20029;-96
2023/08/10 12:54:29;;;;;;;4.35;1.10;;;20.40;99.90;;;;;;4841051;29;20092;-96
2023/08/10 12:57:11;;;;;;;;;;;;;;;;;;;;;
2023/08/10 12:59:50;;;;;;;1.83;0.88;;;20.10;99.90;;;;;;4856101;29;20046;-96
2023/08/10 13:03:03;;;;;;;2.22;1.00;;;20.10;99.90;;;;;;4874125;29;20087;-96
2023/08/10 13:05:53;;;;;;;1.73;0.70;;;20.10;99.90;;;;;;4864371;29;20114;-96
2023/08/10 13:08:33;;;;;;;2.75;0.70;;;20.40;99.90;;;;;;4812296;29;20489;-96
2023/08/10 13:11:02;;;;;;;3.10;0.80;;;20.10;99.90;;;;;;4854570;29;20079;-96
2023/08/10 13:13:42;;;;;;;2.78;0.73;;;20.00;99.90;;;;;;4833929;29;20045;-96
2023/08/10 13:16:44;;;;;;;4.47;0.82;;;19.90;99.90;;;;;;4834870;29;20053;-96
2023/08/10 13:19:23;;;;;;;1.50;0.50;;;20.00;99.90;;;;;;4822188;29;20064;-96
2023/08/10 13:22:11;;;;;;;2.53;0.75;;;20.00;99.90;;;;;;4839754;29;20054;-95
2023/08/10 13:24:52;;;;;;;2.65;0.80;;;20.00;99.90;;;;;;4841569;29;20057;-96
2023/08/10 13:27:38;;;;;;;3.60;0.95;;;20.10;99.90;;;;;;4840290;29;20127;-96
2023/08/10 13:30:17;;;;;;;4.90;1.05;;;20.00;99.90;;;;;;4841165;29;20136;-96
2023/08/10 13:33:31;;;;;;;;;;;;;;;;;;;;;
2023/08/10 13:36:39;;;;;;;2.13;1.30;;;19.70;99.90;;;;;;4848415;29;20056;-96
2023/08/10 13:39:16;;;;;;;5.05;1.25;;;19.80;99.90;;;;;;4840288;29;20527;-96
2023/08/10 13:41:48;;;;;;;4.13;1.33;;;19.60;99.90;;;;;;4849283;29;20047;-96
2023/08/10 13:44:22;;;;;;;2.97;1.08;;;19.70;99.90;;;;;;4843789;29;20045;-95
2023/08/10 13:46:59;;;;;;;2.58;1.20;;;19.70;99.90;;;;;;4851884;29;20450;-96
2023/08/10 13:49:44;;;;;;;4.67;1.30;;;19.60;99.90;;;;;;4850095;29;20048;-96
2023/08/10 13:52:53;;;;;;;3.45;1.48;;;19.50;99.90;;;;;;4841861;29;20463;-96
2023/08/10 13:55:25;;;;;;;2.67;1.20;;;19.50;99.90;;;;;;4836307;29;20091;-95
2023/08/10 13:57:54;;;;;;;2.55;1.17;;;19.50;99.90;;;;;;4841253;29;20089;-96
2023/08/10 14:00:31;;;;;;;3.30;1.38;;;19.50;99.90;;;;;;4837331;29;20485;-95
2023/08/10 14:03:15;;;;;;;2.85;1.17;;;19.60;99.90;;;;;;4833300;29;20049;-96
2023/08/10 14:05:46;;;;;;;4.90;1.30;;;19.60;99.90;;;;;;4828057;29;20048;-96
2023/08/10 14:08:33;;;;;;;3.72;1.15;;;19.70;99.90;;;;;;4843424;29;20113;-96
2023/08/10 14:11:22;;;;;;;2.72;1.40;;;19.70;99.90;;;;;;4837265;29;20049;-96
2023/08/10 14:14:07;;;;;;;3.15;0.90;;;19.60;99.90;;;;;;4831321;29;20052;-96
2023/08/10 14:16:41;;;;;;;1.98;1.10;;;19.60;99.90;;;;;;4851038;29;20052;-96
2023/08/10 14:22:45;;;;;;;2.50;1.15;;;19.50;99.90;;;;;;4861967;29;20053;-96
2023/08/10 14:25:20;;;;;;;5.32;1.35;;;19.50;99.90;;;;;;4846150;29;20045;-96
2023/08/10 14:28:13;;;;;;;4.97;1.27;;;19.30;99.90;;;;;;4832376;29;20049;-96
2023/08/10 14:31:34;;;;;;;3.42;1.00;;;19.50;99.90;;;;;;4846521;29;20114;-96
2023/08/10 14:34:26;;;;;;;4.32;1.10;;;19.60;99.90;;;;;;4833638;29;20041;-96
2023/08/10 14:36:57;;;;;;;3.13;1.08;;;19.40;99.90;;;;;;4818190;29;20759;-96
2023/08/10 14:39:31;;;;;;;4.38;1.52;;;19.40;99.90;;;;;;4845543;29;20448;-96
2023/08/10 14:42:32;;;;;;;4.70;1.42;;;19.40;99.90;;;;;;4815090;29;20136;-96
2023/08/10 14:45:09;;;;;;;2.63;1.20;;;19.40;99.90;;;;;;4830832;29;20056;-96
2023/08/10 14:48:04;;;;;;;4.65;1.38;;;19.40;99.90;;;;;;4838110;29;20054;-95
2023/08/10 14:50:48;;;;;;;3.40;1.33;;;19.30;99.90;;;;;;4837056;29;20058;-96
2023/08/10 14:54:10;;;;;;;2.58;1.20;;;19.70;99.90;;;;;;4829048;29;20053;-96
2023/08/10 14:56:52;;;;;;;4.22;1.30;;;19.40;99.90;;;;;;4826592;29;20110;-96
2023/08/10 15:00:23;;;;;;;2.50;1.15;;;19.40;99.90;;;;;;4853820;29;20041;-96
2023/08/10 15:03:18;;;;;;;;;;;;;;;;;;;;;
2023/08/10 15:06:27;;;;;;;2.80;1.20;;;19.50;99.90;;;;;;4853120;29;20045;-96
2023/08/10 15:09:13;;;;;;;;;;;;;;;;;;;;;
2023/08/10 15:12:03;;;;;;;4.40;1.52;;;19.50;99.90;;;;;;4841042;29;20057;-96
2023/08/10 15:14:47;;;;;;;4.25;1.33;;;19.70;99.90;;;;;;4838969;29;20034;-96
2023/08/10 15:17:32;;;;;;;4.05;1.50;;;19.50;99.90;;;;;;4846676;29;20057;-96
2023/08/10 15:20:03;;;;;;;3.45;1.55;;;19.50;99.90;;;;;;4832821;29;20132;-96
2023/08/10 15:22:32;;;;;;;2.53;1.58;;;19.60;99.90;;;;;;4824674;29;20066;-96
2023/08/10 15:25:13;;;;;;;2.13;1.38;;;19.60;99.90;;;;;;4835262;29;20077;-96
2023/08/10 15:27:58;;;;;;;3.08;1.33;;;19.50;99.90;;;;;;4844878;29;20625;-96
2023/08/10 15:30:35;;;;;;;1.90;1.35;;;19.60;99.90;;;;;;4826519;29;20044;-96
2023/08/10 15:33:18;;;;;;;3.00;1.10;;;19.40;99.90;;;;;;4847469;29;20055;-96
2023/08/10 15:36:41;;;;;;;;;;;;;;;;;;;;;
2023/08/10 15:39:29;;;;;;;2.55;1.20;;;19.40;99.90;;;;;;4863629;29;20068;-94
2023/08/10 15:42:19;;;;;;;5.72;1.40;;;19.50;99.90;;;;;;4827124;29;20141;-95
2023/08/10 15:44:52;;;;;;;1.95;1.20;;;19.40;99.90;;;;;;4819051;29;20124;-96
2023/08/10 15:47:21;;;;;;;3.17;1.08;;;19.40;99.90;;;;;;4816960;29;20053;-96
2023/08/10 15:49:52;;;;;;;2.15;1.10;;;19.40;99.90;;;;;;4831240;29;20520;-95
2023/08/10 15:52:35;;;;;;;2.92;1.17;;;19.40;99.90;;;;;;4829368;29;20045;-96
2023/08/10 15:55:12;;;;;;;4.38;1.35;;;19.40;99.90;;;;;;4830850;29;20047;-96
2023/08/10 15:57:43;;;;;;;4.75;1.33;;;19.40;99.90;;;;;;4828750;29;20085;-96
2023/08/10 16:00:16;;;;;;;1.58;0.80;;;19.40;99.90;;;;;;4841514;29;20049;-96
2023/08/10 16:02:55;;;;;;;2.95;1.10;;;19.40;99.90;;;;;;4842544;29;20049;-96
2023/08/10 16:05:32;;;;;;;2.22;1.08;;;19.40;99.90;;;;;;4836154;29;20094;-96
2023/08/10 16:08:01;;;;;;;4.82;1.10;;;19.90;99.90;;;;;;4846032;29;20564;-96
2023/08/10 16:10:39;;;;;;;4.90;1.20;;;19.30;99.90;;;;;;4834932;29;20067;-96
2023/08/10 16:13:24;;;;;;;4.95;1.13;;;19.30;99.90;;;;;;4849639;29;20049;-96
2023/08/10 16:16:06;;;;;;;2.80;0.90;;;19.10;99.90;;;;;;4833423;29;20532;-96
2023/08/10 16:19:04;;;;;;;3.25;1.08;;;19.20;99.90;;;;;;4824701;29;20065;-96
2023/08/10 16:21:49;;;;;;;3.20;1.08;;;19.20;99.90;;;;;;4844370;29;20064;-95